IK5SRE Weather Reports


time (UTC)temp
C
wind
direction
speed
KPH
gust
KPH
rain 1hr
cm
rain 24hr
cm
rain mn
cm
humidity
%
barometer
mb
20260906112017 32 135 3.2 8.0 0.00 0.00 0.00 52 1019.9
20260906111017 32 113 4.8 9.7 0.00 0.00 0.00 53 1019.9
20260906110017 32 180 1.6 6.4 0.00 0.00 0.00 53 1020.0
20260906105017 32 0.0 3.2 0.00 0.00 0.00 54 1020.1
20260906104017 31 135 4.8 11.3 0.00 0.00 0.00 54 1020.2
20260906103017 31 158 4.8 9.7 0.00 0.00 0.00 55 1020.3
20260906102017 31 158 3.2 11.3 0.00 0.00 0.00 59 1020.3
20260906101017 31 158 3.2 11.3 0.00 0.00 0.00 58 1020.4
20260906100017 31 113 3.2 8.0 0.00 0.00 0.00 60 1020.5
20260906095017 30 203 1.6 6.4 0.00 0.00 0.00 59 1020.5
20260906094017 30 180 3.2 8.0 0.00 0.00 0.00 60 1020.4
20260906093017 30 180 3.2 9.7 0.00 0.00 0.00 62 1020.5
20260906092037 29 180 4.8 9.7 0.00 0.00 0.00 62 1020.5
20260906091017 30 180 1.6 8.0 0.00 0.00 0.00 63 1020.6
20260906090017 28 180 4.8 9.7 0.00 0.00 0.00 63 1020.6
20260906085017 28 158 3.2 8.0 0.00 0.00 0.00 67 1020.6
20260906084017 28 203 3.2 9.7 0.00 0.00 0.00 70 1020.5
20260906083017 28 180 3.2 9.7 0.00 0.00 0.00 70 1020.5
20260906082017 28 0.0 6.4 0.00 0.00 0.00 70 1020.5
20260906081017 27 158 3.2 8.0 0.00 0.00 0.00 72 1020.4
20260906080017 27 180 1.6 6.4 0.00 0.00 0.00 74 1020.4
20260906075017 26 180 3.2 8.0 0.00 0.00 0.00 74 1020.4
20260906074017 26 180 3.2 8.0 0.00 0.00 0.00 75 1020.3
20260906073037 26 180 1.6 8.0 0.00 0.00 0.00 77 1020.2
20260906072017 25 270 3.2 6.4 0.00 0.00 0.00 77 1020.1
20260906071017 25 225 1.6 6.4 0.00 0.00 0.00 77 1020.1
20260906070017 25 203 3.2 8.0 0.00 0.00 0.00 81 1020.0
20260906065017 24 180 3.2 11.3 0.00 0.00 0.00 82 1020.0
20260906064017 24 0.0 3.2 0.00 0.00 0.00 83 1019.9
20260906063017 23 248 1.6 6.4 0.00 0.00 0.00 83 1019.9
20260906062017 23 0.0 4.8 0.00 0.00 0.00 86 1019.8
20260906061017 22 0.0 3.2 0.00 0.00 0.00 87 1019.7
20260906060017 22 225 3.2 8.0 0.00 0.00 0.00 87 1019.7
20260906055017 22 225 3.2 8.0 0.00 0.00 0.00 87 1019.5
20260906054017 22 225 3.2 8.0 0.00 0.00 0.00 87 1019.6
20260906053057 22 293 3.2 6.4 0.00 0.00 0.00 88 1019.4
20260906052017 21 0.0 3.2 0.00 0.00 0.00 89 1019.4
20260906051017 21 0.0 0.0 0.00 0.00 0.00 89 1019.3
20260906050017 21 0.0 3.2 0.00 0.00 0.00 89 1019.3
20260906045017 21 0.0 3.2 0.00 0.00 0.00 89 1019.3
20260906044017 21 293 3.2 8.0 0.00 0.00 0.00 89 1019.2
20260906043017 21 270 1.6 4.8 0.00 0.00 0.00 89 1019.2
20260906042017 21 270 1.6 4.8 0.00 0.00 0.00 89 1019.2
20260906041057 21 293 3.2 4.8 0.00 0.00 0.00 89 1019.3
20260906040017 21 0.0 0.0 0.00 0.00 0.00 89 1019.2
20260906035037 21 0.0 0.0 0.00 0.00 0.00 89 1019.1
20260906034017 21 0.0 0.0 0.00 0.00 0.00 88 1019.0
20260906033017 21 0.0 0.0 0.00 0.00 0.00 88 1019.0
20260906032017 22 0.0 0.0 0.00 0.00 0.00 88 1019.0
20260906031037 22 0.0 0.0 0.00 0.00 0.00 88 1019.0
20260906030017 22 0.0 4.8 0.00 0.00 0.00 88 1018.8
20260906025017 22 0.0 3.2 0.00 0.00 0.00 88 1018.9
20260906024057 22 0.0 0.0 0.00 0.00 0.00 89 1018.9
20260906023017 22 0 1.6 6.4 0.00 0.00 0.00 89 1019.0
20260906022017 21 0.0 0.0 0.00 0.00 0.00 89 1019.0
20260906021037 21 0.0 3.2 0.00 0.00 0.00 89 1019.0
20260906020017 21 0.0 0.0 0.00 0.00 0.00 88 1019.0
20260906015017 22 0.0 0.0 0.00 0.00 0.00 87 1019.0
20260906014017 22 0.0 0.0 0.00 0.00 0.00 87 1019.0
20260906013017 22 0.0 3.2 0.00 0.00 0.00 86 1018.9
20260906012017 22 0 1.6 4.8 0.00 0.00 0.00 87 1018.9
20260906011017 22 23 3.2 6.4 0.00 0.00 0.00 86 1019.0
20260906010017 22 293 3.2 6.4 0.00 0.00 0.00 86 1018.9
20260906005017 22 293 1.6 6.4 0.00 0.00 0.00 86 1018.9
20260906004017 22 293 3.2 6.4 0.00 0.00 0.00 86 1018.9
20260906003017 22 270 1.6 6.4 0.00 0.00 0.00 86 1018.9
20260906002017 23 293 1.6 4.8 0.00 0.00 0.00 85 1018.9
20260906001017 23 293 1.6 6.4 0.00 0.00 0.00 85 1019.0
20260906000017 23 293 1.6 4.8 0.00 0.00 0.00 85 1019.0
20260905235017 23 293 1.6 4.8 0.00 0.00 0.00 85 1019.0
20260905234017 23 293 1.6 6.4 0.00 0.00 0.00 85 1019.0
20260905233017 23 293 1.6 4.8 0.00 0.00 0.00 85 1019.0
20260905232017 23 23 1.6 4.8 0.00 0.00 0.00 84 1019.0
20260905231017 23 293 1.6 3.2 0.00 0.00 0.00 84 1019.1
20260905230037 23 293 3.2 6.4 0.00 0.00 0.00 83 1019.1
20260905225017 23 270 1.6 4.8 0.00 0.00 0.00 83 1019.1
20260905224017 23 23 3.2 8.0 0.00 0.00 0.00 84 1019.1
20260905223017 23 293 3.2 6.4 0.00 0.00 0.00 84 1019.0
20260905222017 23 293 1.6 4.8 0.00 0.00 0.00 83 1018.9
20260905221017 23 293 1.6 6.4 0.00 0.00 0.00 83 1018.9
20260905220017 23 293 3.2 6.4 0.00 0.00 0.00 83 1018.9
20260905215037 23 0 3.2 8.0 0.00 0.00 0.00 82 1018.8
20260905214017 23 0 3.2 6.4 0.00 0.00 0.00 83 1018.8
20260905213017 23 23 1.6 6.4 0.00 0.00 0.00 83 1018.7
20260905212017 24 0 4.8 9.7 0.00 0.00 0.00 82 1018.7
20260905211017 24 0 3.2 6.4 0.00 0.00 0.00 82 1018.7
20260905210017 23 23 1.6 6.4 0.00 0.00 0.00 83 1018.7
20260905205517 23 293 3.2 6.4 0.00 0.00 0.00 83 1018.5
20260905204517 24 0.0 3.2 0.00 0.00 0.00 82 1018.5
20260905203517 24 0 1.6 4.8 0.00 0.00 0.00 82 1018.4
20260905202517 23 293 3.2 4.8 0.00 0.00 0.00 82 1018.4
20260905201517 23 0.0 3.2 0.00 0.00 0.00 82 1018.4
20260905200517 24 0.0 3.2 0.00 0.00 0.00 81 1018.4
20260905195537 24 293 1.6 4.8 0.00 0.00 0.00 80 1018.3
20260905194517 25 0.0 0.0 0.00 0.00 0.00 77 1018.2
20260905193517 25 293 1.6 4.8 0.00 0.00 0.00 75 1018.2
20260905192517 25 293 1.6 6.4 0.00 0.00 0.00 72 1018.0
20260905191557 25 293 1.6 4.8 0.00 0.00 0.00 72 1017.9
20260905190537 25 293 1.6 4.8 0.00 0.00 0.00 71 1017.8
20260905185517 25 0.0 3.2 0.00 0.00 0.00 70 1017.7
20260905184517 26 293 3.2 4.8 0.00 0.00 0.00 69 1017.6
20260905183517 26 293 3.2 6.4 0.00 0.00 0.00 69 1017.5
20260905182517 26 270 3.2 8.0 0.00 0.00 0.00 68 1017.4
20260905181537 26 248 1.6 6.4 0.00 0.00 0.00 68 1017.3
20260905180537 26 270 3.2 8.0 0.00 0.00 0.00 67 1017.2
20260905175517 26 293 3.2 8.0 0.00 0.00 0.00 67 1017.1
20260905174517 26 270 1.6 6.4 0.00 0.00 0.00 67 1017.1
20260905173517 27 248 3.2 8.0 0.00 0.00 0.00 68 1017.1
20260905172517 27 270 1.6 6.4 0.00 0.00 0.00 69 1017.0
20260905171557 27 270 1.6 8.0 0.00 0.00 0.00 69 1017.0
20260905170537 27 270 3.2 11.3 0.00 0.00 0.00 69 1017.1
20260905165517 27 270 3.2 9.7 0.00 0.00 0.00 70 1017.0
20260905164517 28 225 3.2 9.7 0.00 0.00 0.00 71 1016.9
20260905163517 28 293 3.2 8.0 0.00 0.00 0.00 70 1016.9
20260905162517 28 270 3.2 9.7 0.00 0.00 0.00 69 1016.9
20260905161517 28 203 3.2 8.0 0.00 0.00 0.00 68 1016.9
20260905160517 29 293 3.2 14.5 0.00 0.00 0.00 66 1017.0
20260905155517 29 270 3.2 8.0 0.00 0.00 0.00 65 1017.0
20260905154517 30 248 3.2 12.9 0.00 0.00 0.00 64 1017.0
20260905153517 30 270 4.8 14.5 0.00 0.00 0.00 63 1017.0
20260905152517 30 225 3.2 11.3 0.00 0.00 0.00 62 1016.9
20260905151517 30 293 3.2 8.0 0.00 0.00 0.00 61 1016.8
20260905150517 31 293 3.2 9.7 0.00 0.00 0.00 60 1016.8
20260905145517 31 180 3.2 11.3 0.00 0.00 0.00 59 1016.8
20260905144517 31 270 4.8 12.9 0.00 0.00 0.00 57 1016.8
20260905143517 31 203 3.2 9.7 0.00 0.00 0.00 56 1017.0
20260905142517 31 180 3.2 8.0 0.00 0.00 0.00 57 1017.1
20260905141517 31 270 3.2 9.7 0.00 0.00 0.00 57 1017.1
20260905140517 31 180 3.2 12.9 0.00 0.00 0.00 58 1017.2
20260905135517 31 180 6.4 17.7 0.00 0.00 0.00 55 1017.3
20260905135017 31 180 3.2 14.5 0.00 0.00 0.00 56 1017.3
20260905134017 31 180 3.2 8.0 0.00 0.00 0.00 57 1017.5
20260905133017 31 225 4.8 11.3 0.00 0.00 0.00 56 1017.5
20260905132017 31 180 4.8 9.7 0.00 0.00 0.00 55 1017.6
20260905131017 31 248 3.2 8.0 0.00 0.00 0.00 56 1017.8
20260905130017 31 180 4.8 19.3 0.00 0.00 0.00 58 1018.0
20260905125017 31 180 4.8 12.9 0.00 0.00 0.00 56 1017.9
20260905124017 31 180 3.2 11.3 0.00 0.00 0.00 57 1018.0
20260905123017 31 180 6.4 16.1 0.00 0.00 0.00 56 1018.0
20260905122017 31 180 3.2 12.9 0.00 0.00 0.00 56 1018.1
20260905121017 31 158 4.8 14.5 0.00 0.00 0.00 56 1018.1
20260905120017 31 270 4.8 16.1 0.00 0.00 0.00 55 1018.2
20260905115017 31 270 3.2 12.9 0.00 0.00 0.00 57 1018.3
20260905114017 31 180 3.2 14.5 0.00 0.00 0.00 58 1018.5
20260905113017 31 180 6.4 16.1 0.00 0.00 0.00 58 1018.4